Time;durP1;ratioP1;P1;durP2;ratioP2;P2;SDS_P1;SDS_P2;PMS_P1;PMS_P2;Temp;Humidity;BMP_temperature;BMP_pressure;BME280_temperature;BME280_humidity;BME280_pressure;Samples;Min_cycle;Max_cycle;Signal;HPM_P1;HPM_P2
2022/09/05 00:02:24;;;;;;;;;;;16.40;99.90;;;;;;5044542;28;19917;-69
2022/09/05 00:04:56;;;;;;;;;;;16.30;99.90;;;;;;5043689;28;20259;-69
2022/09/05 00:07:25;;;;;;;;;;;16.30;99.90;;;;;;5024261;28;19985;-69
2022/09/05 00:09:59;;;;;;;;;;;16.20;99.90;;;;;;5024448;28;19928;-69
2022/09/05 00:12:29;;;;;;;;;;;16.20;99.90;;;;;;5024378;28;20117;-69
2022/09/05 00:15:03;;;;;;;;;;;16.20;99.90;;;;;;5036417;28;19996;-69
2022/09/05 00:17:36;;;;;;;;;;;16.20;99.90;;;;;;5043952;28;19921;-68
2022/09/05 00:20:10;;;;;;;;;;;16.10;99.90;;;;;;5043096;28;19953;-69
2022/09/05 00:22:41;;;;;;;;;;;16.10;99.90;;;;;;5044152;28;19928;-69
2022/09/05 00:25:17;;;;;;;;;;;16.10;99.90;;;;;;5042702;28;19921;-68
2022/09/05 00:27:49;;;;;;;;;;;16.00;99.90;;;;;;5043803;28;19991;-69
2022/09/05 00:30:17;;;;;;;;;;;16.00;99.90;;;;;;5043708;28;19996;-69
2022/09/05 00:32:54;;;;;;;;;;;15.90;99.90;;;;;;5023971;28;19993;-68
2022/09/05 00:35:28;;;;;;;;;;;15.90;99.90;;;;;;5023904;28;20086;-68
2022/09/05 00:37:55;;;;;;;;;;;15.90;99.90;;;;;;5029527;28;19980;-69
2022/09/05 00:40:26;;;;;;;;;;;15.80;99.90;;;;;;5043600;28;19936;-69
2022/09/05 00:42:56;;;;;;;;;;;15.80;99.90;;;;;;5043032;28;19960;-68
2022/09/05 00:45:27;;;;;;;;;;;15.80;99.90;;;;;;5043438;28;19921;-68
2022/09/05 00:47:56;;;;;;;;;;;15.70;99.90;;;;;;5043816;28;19927;-69
2022/09/05 00:50:27;;;;;;;;;;;15.70;99.90;;;;;;5043675;28;19983;-69
2022/09/05 00:52:56;;;;;;;;;;;15.70;99.90;;;;;;5042580;28;19984;-69
2022/09/05 00:55:27;;;;;;;;;;;15.70;99.90;;;;;;5043335;28;20123;-69
2022/09/05 00:58:08;;;;;;;;;;;15.60;99.90;;;;;;5043590;28;19964;-69
2022/09/05 01:00:43;;;;;;;;;;;15.60;99.90;;;;;;5043166;28;19988;-69
2022/09/05 01:03:15;;;;;;;;;;;15.50;99.90;;;;;;5042817;28;20216;-69
2022/09/05 01:05:47;;;;;;;;;;;15.50;99.90;;;;;;5043006;28;20108;-69
2022/09/05 01:08:21;;;;;;;;;;;15.50;99.90;;;;;;5043319;28;19980;-69
2022/09/05 01:10:50;;;;;;;;;;;15.50;99.90;;;;;;5043393;28;19985;-69
2022/09/05 01:13:27;;;;;;;;;;;15.50;99.90;;;;;;5043081;28;19984;-69
2022/09/05 01:15:57;;;;;;;;;;;15.50;99.90;;;;;;5042116;28;19921;-68
2022/09/05 01:18:37;;;;;;;;;;;15.40;99.90;;;;;;5042904;28;19956;-69
2022/09/05 01:21:10;;;;;;;;;;;15.40;99.90;;;;;;5042973;28;19964;-73
2022/09/05 01:23:44;;;;;;;;;;;15.30;99.90;;;;;;5042738;28;19984;-68
2022/09/05 01:26:25;;;;;;;;;;;15.30;99.90;;;;;;5042946;28;20183;-68
2022/09/05 01:28:57;;;;;;;;;;;15.20;99.90;;;;;;5042954;28;20405;-69
2022/09/05 01:31:27;;;;;;;;;;;15.20;99.90;;;;;;5046002;28;19960;-69
2022/09/05 01:33:59;;;;;;;;;;;15.10;99.90;;;;;;5046592;28;19967;-69
2022/09/05 01:36:38;;;;;;;;;;;15.10;99.90;;;;;;5047069;28;19984;-69
2022/09/05 01:39:08;;;;;;;;;;;15.10;99.90;;;;;;5046970;28;19928;-68
2022/09/05 01:41:41;;;;;;;;;;;15.10;99.90;;;;;;5046827;28;19921;-69
2022/09/05 01:44:16;;;;;;;;;;;15.00;99.90;;;;;;5046426;28;19988;-69
2022/09/05 01:46:50;;;;;;;;;;;15.00;99.90;;;;;;5046469;28;19989;-69
2022/09/05 01:49:23;;;;;;;;;;;15.00;99.90;;;;;;5047171;28;19921;-69
2022/09/05 01:51:56;;;;;;;;;;;15.00;99.90;;;;;;5047164;28;19928;-68
2022/09/05 01:54:24;;;;;;;;;;;15.00;99.90;;;;;;5046303;28;19996;-69
2022/09/05 01:56:56;;;;;;;;;;;15.00;99.90;;;;;;5046653;28;19977;-69
2022/09/05 01:59:27;;;;;;;;;;;14.90;99.90;;;;;;5046592;28;20187;-69
2022/09/05 02:01:57;;;;;;;;;;;14.80;99.90;;;;;;5046157;28;19951;-69
2022/09/05 02:04:42;;;;;;;;;;;14.80;99.90;;;;;;5045834;28;19988;-69
2022/09/05 02:07:14;;;;;;;;;;;14.80;99.90;;;;;;5045734;28;19928;-68
2022/09/05 02:09:55;;;;;;;;;;;14.70;99.90;;;;;;5046016;28;19967;-69
2022/09/05 02:12:28;;;;;;;;;;;14.70;99.90;;;;;;5046262;28;19929;-68
2022/09/05 02:14:59;;;;;;;;;;;14.70;99.90;;;;;;5045767;28;19995;-69
2022/09/05 02:17:30;;;;;;;;;;;14.70;99.90;;;;;;5046349;28;19992;-69
2022/09/05 02:19:59;;;;;;;;;;;14.70;99.90;;;;;;5046230;28;19953;-69
2022/09/05 02:22:28;;;;;;;;;;;14.70;99.90;;;;;;5046217;28;20248;-69
2022/09/05 02:25:03;;;;;;;;;;;14.70;99.90;;;;;;5045439;28;19955;-69
2022/09/05 02:27:31;;;;;;;;;;;14.60;99.90;;;;;;5046174;28;19948;-69
2022/09/05 02:30:07;;;;;;;;;;;14.70;99.90;;;;;;5046261;28;20263;-68
2022/09/05 02:32:39;;;;;;;;;;;14.60;99.90;;;;;;5045694;28;20151;-69
2022/09/05 02:35:12;;;;;;;;;;;14.50;99.90;;;;;;5045766;28;20159;-69
2022/09/05 02:37:41;;;;;;;;;;;14.50;99.90;;;;;;5045785;28;20296;-69
2022/09/05 02:40:12;;;;;;;;;;;14.40;99.90;;;;;;5045635;28;19984;-69
2022/09/05 02:42:42;;;;;;;;;;;14.40;99.90;;;;;;5044464;28;19989;-69
2022/09/05 02:45:18;;;;;;;;;;;14.30;99.90;;;;;;5045925;28;20052;-69
2022/09/05 02:47:48;;;;;;;;;;;14.30;99.90;;;;;;5045594;28;20209;-69
2022/09/05 02:50:33;;;;;;;;;;;14.30;99.90;;;;;;5046182;28;19953;-68
2022/09/05 02:53:00;;;;;;;;;;;14.30;99.90;;;;;;5045227;28;19984;-69
2022/09/05 02:55:30;;;;;;;;;;;14.30;99.90;;;;;;5045542;28;19996;-69
2022/09/05 02:58:08;;;;;;;;;;;14.30;99.90;;;;;;5045169;28;19959;-69
2022/09/05 03:00:38;;;;;;;;;;;14.30;99.90;;;;;;5045556;28;20012;-69
2022/09/05 03:03:12;;;;;;;;;;;14.20;99.90;;;;;;5045005;28;19921;-69
2022/09/05 03:05:41;;;;;;;;;;;14.20;99.90;;;;;;5042774;28;20287;-68
2022/09/05 03:08:15;;;;;;;;;;;14.20;99.90;;;;;;5044370;28;19976;-69
2022/09/05 03:11:10;;;;;;;;;;;14.10;99.90;;;;;;5045222;28;19984;-69
2022/09/05 03:14:05;;;;;;;;;;;14.10;99.90;;;;;;5044650;28;19929;-69
2022/09/05 03:16:58;;;;;;;;;;;14.10;99.90;;;;;;5045035;28;20136;-69
2022/09/05 03:19:37;;;;;;;;;;;14.10;99.90;;;;;;5045465;28;19936;-69
2022/09/05 03:22:15;;;;;;;;;;;14.00;99.90;;;;;;5045298;28;19921;-68
2022/09/05 03:24:55;;;;;;;;;;;14.00;99.90;;;;;;5044540;28;19980;-68
2022/09/05 03:27:40;;;;;;;;;;;14.00;99.90;;;;;;5025431;28;19984;-69
2022/09/05 03:30:10;;;;;;;;;;;14.00;99.90;;;;;;5025156;28;19984;-69
2022/09/05 03:32:51;;;;;;;;;;;13.90;99.90;;;;;;5024645;28;19984;-69
2022/09/05 03:35:36;;;;;;;;;;;13.80;99.90;;;;;;5033979;28;19928;-68
2022/09/05 03:38:23;;;;;;;;;;;13.80;99.90;;;;;;5044706;28;19921;-68
2022/09/05 03:41:05;;;;;;;;;;;13.80;99.90;;;;;;5044669;28;20227;-69
2022/09/05 03:43:48;;;;;;;;;;;13.80;99.90;;;;;;5043999;28;20266;-69
2022/09/05 03:46:22;;;;;;;;;;;13.80;99.90;;;;;;5044531;28;19921;-69
2022/09/05 03:49:00;;;;;;;;;;;13.80;99.90;;;;;;5044769;28;20000;-69
2022/09/05 03:51:30;;;;;;;;;;;13.80;99.90;;;;;;5044321;28;19921;-69
2022/09/05 03:54:11;;;;;;;;;;;13.80;99.90;;;;;;5043446;28;19921;-69
2022/09/05 03:56:49;;;;;;;;;;;13.70;99.90;;;;;;5031844;28;19963;-69
2022/09/05 03:59:35;;;;;;;;;;;13.70;99.90;;;;;;5044218;28;19927;-69
2022/09/05 04:02:04;;;;;;;;;;;13.70;99.90;;;;;;5044573;28;19921;-69
2022/09/05 04:04:33;;;;;;;;;;;13.70;99.90;;;;;;5041373;28;20117;-70
2022/09/05 04:07:02;;;;;;;;;;;13.70;99.90;;;;;;5024254;28;19922;-69
2022/09/05 04:09:32;;;;;;;;;;;13.70;99.90;;;;;;5031371;28;19961;-69
2022/09/05 04:12:00;;;;;;;;;;;13.70;99.90;;;;;;5044446;28;19987;-69
2022/09/05 04:14:30;;;;;;;;;;;13.70;99.90;;;;;;5043442;28;19921;-69
2022/09/05 04:17:00;;;;;;;;;;;13.70;99.90;;;;;;5042437;28;19984;-68
2022/09/05 04:19:29;;;;;;;;;;;13.60;99.90;;;;;;5043922;28;20161;-69
2022/09/05 04:22:03;;;;;;;;;;;13.60;99.90;;;;;;5035704;28;19921;-68
2022/09/05 04:24:36;;;;;;;;;;;13.60;99.90;;;;;;5034576;28;19929;-69
2022/09/05 04:27:15;;;;;;;;;;;13.60;99.90;;;;;;5030371;28;20296;-69
2022/09/05 04:29:48;;;;;;;;;;;13.50;99.90;;;;;;5034058;28;19983;-69
2022/09/05 04:32:18;;;;;;;;;;;13.50;99.90;;;;;;5038966;28;19980;-68
2022/09/05 04:34:51;;;;;;;;;;;13.50;99.90;;;;;;5043726;28;19926;-68
2022/09/05 04:37:33;;;;;;;;;;;13.40;99.90;;;;;;5044152;28;19964;-68
2022/09/05 04:40:24;;;;;;;;;;;13.40;99.90;;;;;;5044153;28;19952;-68
2022/09/05 04:42:51;;;;;;;;;;;13.30;99.90;;;;;;5043096;28;19921;-68
2022/09/05 04:45:18;;;;;;;;;;;13.30;99.90;;;;;;5043703;28;19930;-68
2022/09/05 04:47:49;;;;;;;;;;;13.30;99.90;;;;;;5043686;28;19954;-68
2022/09/05 04:50:17;;;;;;;;;;;13.40;99.90;;;;;;5044030;28;19956;-68
2022/09/05 04:52:57;;;;;;;;;;;13.30;99.90;;;;;;5041305;28;19935;-68
2022/09/05 04:55:26;;;;;;;;;;;13.30;99.90;;;;;;5043199;28;19921;-68
2022/09/05 04:57:54;;;;;;;;;;;13.30;99.90;;;;;;5043607;28;19960;-68
2022/09/05 05:00:24;;;;;;;;;;;13.30;99.90;;;;;;5043588;28;19921;-68
2022/09/05 05:02:52;;;;;;;;;;;13.30;99.90;;;;;;5043052;28;20152;-68
2022/09/05 05:05:20;;;;;;;;;;;13.20;99.90;;;;;;5036269;28;19984;-68
2022/09/05 05:07:51;;;;;;;;;;;13.20;99.90;;;;;;5042451;23;19957;-95
2022/09/05 05:10:22;;;;;;;;;;;13.70;99.90;;;;;;5050864;22;19913;-71
2022/09/05 05:12:59;;;;;;;;;;;13.20;99.90;;;;;;5055810;28;19960;-69
2022/09/05 05:15:27;;;;;;;;;;;13.20;99.90;;;;;;5054440;28;19988;-71
2022/09/05 05:17:58;;;;;;;;;;;13.20;99.90;;;;;;5059953;28;19927;-72
2022/09/05 05:20:26;;;;;;;;;;;13.20;99.90;;;;;;5052110;28;19948;-70
2022/09/05 05:22:57;;;;;;;;;;;13.20;99.90;;;;;;5061880;28;19920;-70
2022/09/05 05:25:25;;;;;;;;;;;13.20;99.90;;;;;;5050640;28;19956;-69
2022/09/05 05:28:00;;;;;;;;;;;13.20;99.90;;;;;;5049643;28;19951;-67
2022/09/05 05:30:27;;;;;;;;;;;13.30;99.90;;;;;;5063301;28;19952;-70
2022/09/05 05:32:55;;;;;;;;;;;13.20;99.90;;;;;;5062979;28;19955;-68
2022/09/05 05:35:25;;;;;;;;;;;13.30;99.90;;;;;;5053452;28;19921;-69
2022/09/05 05:37:54;;;;;;;;;;;13.30;99.90;;;;;;5043335;28;19959;-68
2022/09/05 05:40:24;;;;;;;;;;;13.30;99.90;;;;;;5043762;28;19959;-69
2022/09/05 05:42:53;;;;;;;;;;;13.40;99.90;;;;;;5042774;28;19952;-69
2022/09/05 05:45:20;;;;;;;;;;;13.40;99.90;;;;;;5043043;28;19988;-69
2022/09/05 05:47:49;;;;;;;;;;;13.40;99.90;;;;;;5043302;28;19921;-71
2022/09/05 05:50:23;;;;;;;;;;;13.50;99.90;;;;;;5043594;28;19921;-70
2022/09/05 05:52:55;;;;;;;;;;;13.60;99.90;;;;;;5042686;28;19996;-70
2022/09/05 05:55:37;;;;;;;;;;;13.60;99.90;;;;;;5040588;28;19948;-70
2022/09/05 05:58:21;;;;;;;;;;;13.70;99.90;;;;;;5040100;28;19987;-70
2022/09/05 06:00:59;;;;;;;;;;;13.70;99.90;;;;;;5043527;28;19921;-70
2022/09/05 06:03:53;;;;;;;;;;;13.80;99.90;;;;;;5042724;28;19921;-70
2022/09/05 06:06:31;;;;;;;;;;;13.80;99.90;;;;;;5007899;28;19921;-70
2022/09/05 06:09:17;;;;;;;;;;;13.90;99.90;;;;;;5043606;28;19984;-70
2022/09/05 06:12:05;;;;;;;;;;;14.00;99.90;;;;;;5043103;28;19928;-70
2022/09/05 06:14:51;;;;;;;;;;;14.00;99.90;;;;;;5042783;28;19921;-70
2022/09/05 06:17:34;;;;;;;;;;;14.10;99.90;;;;;;5045445;28;19983;-70
2022/09/05 06:20:14;;;;;;;;;;;14.20;99.90;;;;;;5046559;28;19928;-71
2022/09/05 06:23:05;;;;;;;;;;;14.30;99.90;;;;;;5046020;28;19963;-71
2022/09/05 06:25:48;;;;;;;;;;;14.40;99.90;;;;;;5046409;28;19972;-71
2022/09/05 06:28:20;;;;;;;;;;;14.40;99.90;;;;;;5048679;28;19929;-70
2022/09/05 06:30:50;;;;;;;;;;;14.50;99.90;;;;;;5047447;28;20001;-71
2022/09/05 06:33:26;;;;;;;;;;;14.60;99.90;;;;;;5045624;28;19988;-71
2022/09/05 06:35:56;;;;;;;;;;;14.70;99.90;;;;;;5046450;28;19992;-71
2022/09/05 06:38:30;;;;;;;;;;;14.70;99.90;;;;;;5046548;28;19927;-72
2022/09/05 06:41:04;;;;;;;;;;;14.80;99.90;;;;;;5046473;28;19928;-71
2022/09/05 06:43:34;;;;;;;;;;;14.90;99.90;;;;;;5045848;28;19989;-71
2022/09/05 06:46:07;;;;;;;;;;;15.00;99.90;;;;;;5046365;28;19989;-71
2022/09/05 06:48:38;;;;;;;;;;;15.10;99.90;;;;;;5046423;28;19984;-71
2022/09/05 06:51:23;;;;;;;;;;;15.20;99.90;;;;;;5046503;28;19984;-71
2022/09/05 06:54:03;;;;;;;;;;;15.40;99.90;;;;;;5045766;28;19977;-71
2022/09/05 06:56:38;;;;;;;;;;;15.50;99.90;;;;;;5043619;28;19996;-70
2022/09/05 06:59:34;;;;;;;;;;;15.60;99.90;;;;;;5046116;28;19984;-71
2022/09/05 07:02:06;;;;;;;;;;;15.70;99.90;;;;;;5045972;28;19932;-72
2022/09/05 07:04:37;;;;;;;;;;;15.80;99.90;;;;;;5045474;28;20204;-71
2022/09/05 07:07:07;;;;;;;;;;;15.90;99.90;;;;;;5045658;28;19956;-71
2022/09/05 07:09:40;;;;;;;;;;;16.00;99.90;;;;;;5045361;28;19921;-71
2022/09/05 07:12:13;;;;;;;;;;;16.20;99.90;;;;;;5044356;28;19981;-71
2022/09/05 07:14:44;;;;;;;;;;;16.20;99.90;;;;;;5038799;28;19980;-71
2022/09/05 07:17:13;;;;;;;;;;;16.30;99.90;;;;;;5047116;28;19921;-71
2022/09/05 07:19:45;;;;;;;;;;;16.40;99.90;;;;;;5045128;28;20184;-71
2022/09/05 07:22:23;;;;;;;;;;;16.50;99.90;;;;;;5036850;28;19984;-71
2022/09/05 07:24:52;;;;;;;;;;;16.60;99.90;;;;;;5044792;28;19964;-71
2022/09/05 07:27:27;;;;;;;;;;;16.70;99.90;;;;;;5044516;28;19921;-71
2022/09/05 07:29:55;;;;;;;;;;;16.90;99.90;;;;;;5044183;28;19980;-71
2022/09/05 07:32:23;;;;;;;;;;;17.10;99.90;;;;;;5044563;28;19927;-71
2022/09/05 07:34:51;;;;;;;;;;;17.20;99.90;;;;;;5044305;28;19928;-71
2022/09/05 07:37:21;;;;;;;;;;;17.40;99.90;;;;;;5044786;28;19963;-71
2022/09/05 07:39:50;;;;;;;;;;;17.50;99.90;;;;;;5044476;28;19944;-71
2022/09/05 07:42:19;;;;;;;;;;;17.70;99.90;;;;;;5044566;28;19984;-71
2022/09/05 07:44:50;;;;;;;;;;;17.80;99.90;;;;;;5044204;28;19943;-71
2022/09/05 07:47:20;;;;;;;;;;;18.00;99.90;;;;;;5033908;28;19928;-71
2022/09/05 07:49:47;;;;;;;;;;;18.20;99.90;;;;;;5024756;28;19928;-71
2022/09/05 07:52:17;;;;;;;;;;;18.40;99.90;;;;;;5024513;28;19921;-71
2022/09/05 07:54:45;;;;;;;;;;;18.60;99.90;;;;;;5024061;28;19989;-70
2022/09/05 07:57:16;;;;;;;;;;;18.80;99.90;;;;;;5024714;28;19937;-71
2022/09/05 07:59:45;;;;;;;;;;;18.90;99.90;;;;;;5024562;28;19984;-70
2022/09/05 08:02:12;;;;;;;;;;;19.00;99.90;;;;;;5025100;28;19921;-71
2022/09/05 08:04:41;;;;;;;;;;;19.20;99.90;;;;;;5022326;28;19989;-72
2022/09/05 08:07:10;;;;;;;;;;;19.30;99.90;;;;;;5025144;28;20108;-71
2022/09/05 08:09:41;;;;;;;;;;;19.40;99.90;;;;;;5024670;28;19953;-70
2022/09/05 08:12:10;;;;;;;;;;;19.50;99.90;;;;;;5024521;28;20001;-71
2022/09/05 08:14:42;;;;;;;;;;;19.50;99.90;;;;;;5033029;28;19959;-69
2022/09/05 08:17:12;;;;;;;;;;;19.60;99.90;;;;;;5044362;28;19924;-69
2022/09/05 08:19:42;;;;;;;;;;;19.70;99.90;;;;;;5044294;28;19936;-69
2022/09/05 08:22:13;;;;;;;;;;;19.70;99.90;;;;;;5044715;28;19927;-70
2022/09/05 08:24:46;;;;;;;;;;;19.80;99.90;;;;;;5043805;28;19927;-73
2022/09/05 08:27:16;;;;;;;;;;;19.90;99.90;;;;;;5044635;28;19984;-70
2022/09/05 08:29:43;;;;;;;;;;;20.00;99.90;;;;;;5043958;28;20185;-69
2022/09/05 08:32:11;;;;;;;;;;;20.10;99.90;;;;;;5044318;28;19984;-70
2022/09/05 08:34:42;;;;;;;;;;;20.20;99.90;;;;;;5043714;28;20143;-68
2022/09/05 08:37:09;;;;;;;;;;;20.30;99.90;;;;;;5044197;28;19943;-70
2022/09/05 08:39:36;;;;;;;;;;;20.40;99.90;;;;;;5042678;28;20205;-70
2022/09/05 08:42:17;;;;;;;;;;;20.50;99.90;;;;;;5043792;28;19953;-70
2022/09/05 08:44:52;;;;;;;;;;;20.60;99.90;;;;;;5042822;28;19928;-69
2022/09/05 08:47:25;;;;;;;;;;;20.80;99.90;;;;;;5043501;28;19964;-68
2022/09/05 08:50:03;;;;;;;;;;;21.00;99.90;;;;;;5043294;28;19921;-68
2022/09/05 08:52:35;;;;;;;;;;;21.10;99.90;;;;;;5043266;28;19967;-68
2022/09/05 08:55:09;;;;;;;;;;;21.20;99.90;;;;;;5042381;28;19960;-69
2022/09/05 08:58:00;;;;;;;;;;;21.30;99.90;;;;;;5043614;28;19921;-67
2022/09/05 09:00:28;;;;;;;;;;;21.40;99.90;;;;;;5043597;28;19927;-69
2022/09/05 09:03:01;;;;;;;;;;;21.40;99.90;;;;;;5043323;28;19956;-68
2022/09/05 09:05:43;;;;;;;;;;;21.50;99.90;;;;;;5042244;28;19984;-69
2022/09/05 09:08:13;;;;;;;;;;;21.50;99.90;;;;;;5043313;28;19963;-69
2022/09/05 09:10:52;;;;;;;;;;;21.60;99.90;;;;;;5043335;28;19963;-70
2022/09/05 09:13:25;;;;;;;;;;;21.70;99.90;;;;;;5043042;28;20262;-70
2022/09/05 09:15:57;;;;;;;;;;;21.90;99.90;;;;;;5043373;28;20263;-69
2022/09/05 09:18:31;;;;;;;;;;;21.90;99.90;;;;;;5043618;28;19980;-70
2022/09/05 09:20:59;;;;;;;;;;;22.00;99.90;;;;;;5043475;28;20207;-69
2022/09/05 09:23:37;;;;;;;;;;;22.10;99.90;;;;;;5044215;28;20201;-69
2022/09/05 09:26:07;;;;;;;;;;;22.20;99.90;;;;;;5046197;28;19959;-69
2022/09/05 09:28:42;;;;;;;;;;;22.30;99.90;;;;;;5041219;28;19928;-69
2022/09/05 09:31:13;;;;;;;;;;;22.40;99.90;;;;;;5043265;28;20205;-70
2022/09/05 09:33:41;;;;;;;;;;;22.50;99.90;;;;;;5042925;28;19992;-69
2022/09/05 09:36:13;;;;;;;;;;;22.60;99.90;;;;;;5043079;28;19928;-70
2022/09/05 09:38:46;;;;;;;;;;;22.70;99.90;;;;;;5043575;28;19984;-70
2022/09/05 09:41:26;;;;;;;;;;;22.80;99.90;;;;;;5043143;28;20209;-70
2022/09/05 09:44:06;;;;;;;;;;;22.90;99.90;;;;;;5029295;28;19986;-69
2022/09/05 09:46:40;;;;;;;;;;;23.10;99.90;;;;;;5023259;28;19988;-70
2022/09/05 09:49:13;;;;;;;;;;;23.20;99.90;;;;;;5023542;28;19964;-70
2022/09/05 09:51:45;;;;;;;;;;;23.20;99.90;;;;;;5025796;28;19957;-69
2022/09/05 09:54:25;;;;;;;;;;;23.30;99.90;;;;;;5026557;28;19928;-70
2022/09/05 09:57:06;;;;;;;;;;;23.40;99.90;;;;;;5027200;28;19996;-71
2022/09/05 09:59:46;;;;;;;;;;;23.60;99.90;;;;;;5035269;28;20121;-71
2022/09/05 10:02:23;;;;;;;;;;;23.70;99.90;;;;;;5027077;28;20148;-71
2022/09/05 10:05:04;;;;;;;;;;;23.80;99.90;;;;;;5023728;28;19981;-71
2022/09/05 10:07:51;;;;;;;;;;;23.90;99.90;;;;;;5026740;28;19984;-71
2022/09/05 10:10:36;;;;;;;;;;;24.00;99.90;;;;;;5033436;28;20102;-71
2022/09/05 10:13:23;;;;;;;;;;;24.10;99.90;;;;;;5035610;28;19927;-70
2022/09/05 10:16:05;;;;;;;;;;;24.20;99.90;;;;;;5039459;28;19925;-71
2022/09/05 10:18:39;;;;;;;;;;;24.30;99.90;;;;;;5046534;28;19984;-72
2022/09/05 10:21:16;;;;;;;;;;;24.50;99.90;;;;;;5046533;28;19988;-71
2022/09/05 10:23:51;;;;;;;;;;;24.60;99.90;;;;;;5045803;28;19921;-71
2022/09/05 10:26:33;;;;;;;;;;;24.70;99.90;;;;;;5045992;28;19960;-72
2022/09/05 10:29:05;;;;;;;;;;;24.70;99.90;;;;;;5002712;28;19921;-72
2022/09/05 10:31:40;;;;;;;;;;;24.80;99.90;;;;;;5046205;28;19921;-72
2022/09/05 10:34:10;;;;;;;;;;;24.90;99.90;;;;;;5045509;28;19975;-71
2022/09/05 10:36:39;;;;;;;;;;;25.10;99.90;;;;;;5045678;28;19921;-71
2022/09/05 10:39:14;;;;;;;;;;;25.30;99.90;;;;;;5045945;28;19921;-71
2022/09/05 10:41:49;;;;;;;;;;;25.40;99.90;;;;;;5046017;28;19921;-72
2022/09/05 10:44:22;;;;;;;;;;;25.50;99.90;;;;;;5045421;28;19921;-72
2022/09/05 10:46:55;;;;;;;;;;;25.60;99.90;;;;;;5046157;28;19992;-72
2022/09/05 10:49:24;;;;;;;;;;;25.60;99.90;;;;;;5045542;28;19992;-71
2022/09/05 10:51:55;;;;;;;;;;;25.70;99.90;;;;;;5046012;28;19925;-72
2022/09/05 10:54:29;;;;;;;;;;;25.70;99.90;;;;;;5045003;28;19957;-71
2022/09/05 10:57:01;;;;;;;;;;;25.80;99.90;;;;;;5045579;28;19925;-71
2022/09/05 10:59:30;;;;;;;;;;;26.00;99.90;;;;;;5045565;28;19921;-71
2022/09/05 11:02:05;;;;;;;;;;;26.00;99.90;;;;;;5045219;28;19928;-70
2022/09/05 11:04:43;;;;;;;;;;;26.20;99.90;;;;;;5042855;28;19921;-71
2022/09/05 11:07:12;;;;;;;;;;;26.30;99.90;;;;;;5045822;28;19921;-71
2022/09/05 11:09:43;;;;;;;;;;;26.60;99.90;;;;;;5045724;28;19984;-71
2022/09/05 11:12:17;;;;;;;;;;;26.70;99.90;;;;;;5045225;28;19963;-71
2022/09/05 11:14:49;;;;;;;;;;;26.80;99.90;;;;;;5044717;28;19996;-70
2022/09/05 11:17:24;;;;;;;;;;;27.00;99.90;;;;;;5044995;28;19925;-72
2022/09/05 11:19:55;;;;;;;;;;;27.10;99.90;;;;;;5045255;28;19984;-71
2022/09/05 11:22:24;;;;;;;;;;;27.30;99.90;;;;;;5044992;28;19980;-71
2022/09/05 11:24:54;;;;;;;;;;;27.30;99.90;;;;;;5044497;28;19921;-70
2022/09/05 11:27:25;;;;;;;;;;;27.30;99.90;;;;;;5040496;28;19936;-71
2022/09/05 11:29:53;;;;;;;;;;;27.40;99.90;;;;;;5044338;28;19989;-70
2022/09/05 11:32:41;;;;;;;;;;;27.50;99.90;;;;;;5044936;28;19959;-71
2022/09/05 11:35:20;;;;;;;;;;;27.50;99.90;;;;;;5039249;28;19996;-70
2022/09/05 11:38:02;;;;;;;;;;;27.70;99.90;;;;;;5044996;28;19988;-72
2022/09/05 11:40:38;;;;;;;;;;;27.90;99.90;;;;;;5042178;28;19990;-70
2022/09/05 11:43:19;;;;;;;;;;;28.10;99.90;;;;;;5043988;28;19929;-70
2022/09/05 11:46:04;;;;;;;;;;;28.30;99.90;;;;;;5035575;28;19984;-71
2022/09/05 11:48:42;;;;;;;;;;;28.30;99.90;;;;;;5034481;28;19927;-70
2022/09/05 11:51:30;;;;;;;;;;;28.30;99.90;;;;;;5044747;28;19956;-70
2022/09/05 11:54:13;;;;;;;;;;;28.10;99.90;;;;;;5037094;28;20276;-71
2022/09/05 11:56:54;;;;;;;;;;;28.10;99.90;;;;;;5044410;28;19984;-70
2022/09/05 11:59:46;;;;;;;;;;;28.30;99.90;;;;;;5044215;28;19964;-72
2022/09/05 12:02:32;;;;;;;;;;;28.30;99.90;;;;;;5044122;28;20210;-69
2022/09/05 12:05:06;;;;;;;;;;;28.40;99.90;;;;;;5044085;28;19972;-70
2022/09/05 12:07:43;;;;;;;;;;;28.50;99.90;;;;;;5044999;28;19921;-70
2022/09/05 12:10:17;;;;;;;;;;;28.60;99.90;;;;;;5044623;28;19975;-70
2022/09/05 12:12:48;;;;;;;;;;;28.80;99.90;;;;;;5043837;28;20180;-70
2022/09/05 12:15:23;;;;;;;;;;;29.00;99.90;;;;;;5044142;28;20000;-70
2022/09/05 12:17:54;;;;;;;;;;;29.10;99.90;;;;;;5043894;28;19929;-71
2022/09/05 12:20:25;;;;;;;;;;;29.40;99.90;;;;;;5042331;28;19996;-70
2022/09/05 12:22:56;;;;;;;;;;;29.50;99.90;;;;;;5043372;28;20208;-69
2022/09/05 12:25:33;;;;;;;;;;;29.60;99.90;;;;;;5044182;28;19984;-69
2022/09/05 12:28:06;;;;;;;;;;;29.70;99.90;;;;;;5044313;28;19921;-69
2022/09/05 12:30:36;;;;;;;;;;;29.90;99.90;;;;;;5044448;28;19928;-70
2022/09/05 12:33:09;;;;;;;;;;;30.00;99.30;;;;;;5043812;28;19921;-69
2022/09/05 12:35:38;;;;;;;;;;;30.10;99.20;;;;;;5041868;28;19921;-71
2022/09/05 12:38:14;;;;;;;;;;;30.10;98.70;;;;;;5044041;28;20193;-70
2022/09/05 12:40:46;;;;;;;;;;;30.30;99.30;;;;;;5044525;28;19984;-70
2022/09/05 12:43:12;;;;;;;;;;;30.40;99.90;;;;;;5043589;28;20204;-69
2022/09/05 12:45:43;;;;;;;;;;;30.70;98.90;;;;;;5044199;28;19921;-70
2022/09/05 12:48:12;;;;;;;;;;;30.90;99.10;;;;;;5043977;28;19944;-71
2022/09/05 12:50:42;;;;;;;;;;;31.10;98.30;;;;;;5043351;28;19963;-69
2022/09/05 12:53:11;;;;;;;;;;;31.30;97.60;;;;;;5043287;28;19953;-70
2022/09/05 12:55:44;;;;;;;;;;;31.40;96.90;;;;;;5043256;28;19921;-71
2022/09/05 12:58:16;;;;;;;;;;;31.50;97.00;;;;;;5043242;28;19944;-70
2022/09/05 13:00:44;;;;;;;;;;;31.50;96.60;;;;;;5043906;28;19952;-69
2022/09/05 13:03:15;;;;;;;;;;;31.10;96.40;;;;;;5043085;28;20163;-69
2022/09/05 13:05:48;;;;;;;;;;;30.80;96.70;;;;;;5043512;28;19960;-69
2022/09/05 13:08:20;;;;;;;;;;;30.30;96.70;;;;;;5043227;28;19990;-69
2022/09/05 13:10:49;;;;;;;;;;;29.90;97.80;;;;;;5043176;28;19921;-69
2022/09/05 13:13:22;;;;;;;;;;;29.60;97.90;;;;;;5042754;28;19984;-68
2022/09/05 13:15:52;;;;;;;;;;;29.40;97.10;;;;;;5043368;28;19967;-69
2022/09/05 13:18:19;;;;;;;;;;;29.10;97.30;;;;;;5043150;28;19975;-69
2022/09/05 13:20:49;;;;;;;;;;;28.80;97.50;;;;;;5043140;28;20133;-69
2022/09/05 13:23:19;;;;;;;;;;;28.60;97.90;;;;;;5042236;28;20004;-69
2022/09/05 13:25:55;;;;;;;;;;;28.50;98.40;;;;;;5044910;28;19921;-68
2022/09/05 13:28:24;;;;;;;;;;;28.80;97.30;;;;;;5049814;28;19960;-69
2022/09/05 13:30:54;;;;;;;;;;;29.10;97.20;;;;;;5049521;28;20136;-69
2022/09/05 13:33:23;;;;;;;;;;;29.10;96.90;;;;;;5049273;28;20171;-69
2022/09/05 13:36:02;;;;;;;;;;;28.90;96.90;;;;;;5046116;28;20140;-69
2022/09/05 13:38:36;;;;;;;;;;;28.70;97.90;;;;;;5049235;28;20212;-69
2022/09/05 13:41:05;;;;;;;;;;;28.60;97.70;;;;;;5049457;28;19992;-69
2022/09/05 13:43:36;;;;;;;;;;;28.40;98.00;;;;;;5049086;28;19921;-69
2022/09/05 13:46:09;;;;;;;;;;;28.20;98.90;;;;;;5049077;28;19992;-69
2022/09/05 13:48:41;;;;;;;;;;;28.20;98.60;;;;;;5049303;28;20144;-69
2022/09/05 13:51:18;;;;;;;;;;;28.30;98.50;;;;;;5048703;28;19921;-70
2022/09/05 13:53:50;;;;;;;;;;;28.40;98.40;;;;;;5048893;28;19921;-69
2022/09/05 13:56:21;;;;;;;;;;;28.50;97.50;;;;;;5049827;28;19928;-69
2022/09/05 13:58:52;;;;;;;;;;;28.60;97.90;;;;;;5049397;28;20216;-70
2022/09/05 14:01:33;;;;;;;;;;;28.60;97.60;;;;;;5046434;28;19929;-68
2022/09/05 14:04:23;;;;;;;;;;;28.60;97.70;;;;;;5030422;28;19925;-69
2022/09/05 14:07:01;;;;;;;;;;;28.70;97.40;;;;;;5047656;28;19984;-70
2022/09/05 14:09:45;;;;;;;;;;;28.70;98.10;;;;;;5045743;28;19921;-70
2022/09/05 14:12:17;;;;;;;;;;;28.60;97.70;;;;;;5044839;28;19933;-70
2022/09/05 14:14:47;;;;;;;;;;;28.60;97.40;;;;;;5040357;28;19929;-70
2022/09/05 14:17:28;;;;;;;;;;;28.50;97.30;;;;;;5043618;28;20016;-69
2022/09/05 14:22:43;;;;;;;;;;;28.80;98.40;;;;;;5040423;28;19955;-72
2022/09/05 14:25:12;;;;;;;;;;;29.30;98.00;;;;;;5042498;28;20170;-69
2022/09/05 14:27:43;;;;;;;;;;;29.60;97.40;;;;;;5049074;28;20231;-69
2022/09/05 14:30:28;;;;;;;;;;;30.00;96.70;;;;;;5043449;28;20159;-70
2022/09/05 14:33:07;;;;;;;;;;;30.40;96.50;;;;;;5041764;28;19984;-70
2022/09/05 14:35:38;;;;;;;;;;;30.70;95.50;;;;;;5048369;28;19928;-69
2022/09/05 14:38:07;;;;;;;;;;;30.90;95.40;;;;;;5045848;28;19988;-69
2022/09/05 14:40:48;;;;;;;;;;;30.90;95.00;;;;;;5046024;28;19928;-68
2022/09/05 14:43:32;;;;;;;;;;;30.70;95.20;;;;;;5045684;28;19921;-68
2022/09/05 14:46:19;;;;;;;;;;;30.30;94.90;;;;;;5042134;28;20032;-69
2022/09/05 14:49:07;;;;;;;;;;;30.00;94.90;;;;;;5045654;28;20016;-68
2022/09/05 14:51:41;;;;;;;;;;;29.50;95.10;;;;;;5045809;28;19921;-70
2022/09/05 14:54:10;;;;;;;;;;;29.20;94.90;;;;;;5045362;28;19922;-68
2022/09/05 14:56:39;;;;;;;;;;;29.00;94.80;;;;;;5045403;28;20208;-69
2022/09/05 14:59:23;;;;;;;;;;;28.70;96.00;;;;;;5044881;28;19984;-69